Impacts TAF Board
For situational awareness. Not to be used for flight planning purposes.
IDs:

KEWR - Newark Intl, NJ, US

Issued at 1949 UTC 21 Sep 2021
Updated at 2219 UTC 21 Sep 2021
Potential Impact None Slight Moderate High
Time2151Z 21/23Z 22/00Z 22/01Z 22/02Z 22/03Z 22/04Z 22/05Z 22/06Z 22/07Z 22/08Z 22/09Z 22/10Z 22/11Z>>
Type OBS PRVL PRVL PRVL PRVL PRVL PRVL PRVL PRVL PRVL PRVL PRVL PRVL
  [TEMP]  
PRVL
  [TEMP]  
VIS 10 >6 >6 >6 >6 >6 >6 >6 >6 >6 >6 >6 >6 >6
CIG 250 -- -- -- -- -- -- -- -- 12 12 12 12
  [7]  
12
  [7]  
Cover BKN SCT SCT SCT SCT SCT SCT SCT SCT BKN BKN BKN BKN
  [BKN]  
BKN
  [BKN]  
FltCat VFR VFR VFR VFR VFR VFR VFR VFR VFR MVFR MVFR MVFR MVFR
  [IFR]  
MVFR
  [IFR]  
WX -- -- -- -- -- -- -- -- -- -- -- -- --
  [--]  
--
  [--]  
WDir VRB 150 150 150 90 90 90 90 90 100 100 100 100
[100]
100
[100]
WSpd 6 8 8 8 5 5 5 5 5 6 6 6 6
  [6]  
6
  [6]  
WGst -- -- -- -- -- -- -- -- -- -- -- -- --
  [--]  
--
  [--]  
Raw TAF
KEWR 211949Z 2120/2224 15008KT P6SM SCT025 SCT035
  FM220200 09005KT P6SM FEW025 SCT040
  FM220700 10006KT P6SM SCT007 BKN012
  TEMPO 2210/2213 BKN007 BKN012
  FM221400 14010G17KT P6SM BKN020
  FM221600 15014G21KT P6SM SCT025 SCT050 BKN250


Raw METAR
KEWR 212151Z VRB06KT 10SM FEW018 FEW032 BKN250 24/18 A3027 RMK AO2 SLP250 T02440183 $
KEWR 212051Z 12010KT 090V150 10SM SCT030 BKN250 26/17 A3028 RMK AO2 SLP253 T02560167 56014
KEWR 211951Z 11007G14KT 060V120 10SM SCT034 BKN250 26/17 A3029 RMK AO2 SLP256 T02610167

METAR Board
Radar Display
Forecast Discussion
For situational awareness. Not to be used for flight planning purposes.